createdAt,value
2023-01-11T00:00:45.939Z,41.40
2023-01-11T00:03:14.008Z,41.30
2023-01-11T00:05:43.387Z,41.30
2023-01-11T00:08:12.048Z,41.40
2023-01-11T00:10:40.824Z,41.30
2023-01-11T00:13:08.732Z,41.40
2023-01-11T00:15:38.475Z,41.40
2023-01-11T00:18:06.737Z,41.40
2023-01-11T00:20:34.644Z,41.40
2023-01-11T00:23:02.567Z,41.30
2023-01-11T00:25:30.439Z,41.40
2023-01-11T00:27:58.525Z,41.30
2023-01-11T00:30:26.422Z,41.40
2023-01-11T00:32:59.212Z,41.40
2023-01-11T00:35:29.826Z,41.40
2023-01-11T00:37:57.800Z,41.40
2023-01-11T00:40:27.206Z,41.40
2023-01-11T00:43:13.429Z,41.50
2023-01-11T00:46:00.103Z,41.50
2023-01-11T00:48:28.227Z,41.50
2023-01-11T00:50:57.409Z,41.50
2023-01-11T00:53:25.400Z,41.50
2023-01-11T00:55:53.307Z,41.50
2023-01-11T00:58:21.251Z,41.50
2023-01-11T01:00:49.104Z,41.50
2023-01-11T01:03:17.043Z,41.50
2023-01-11T01:05:45.114Z,41.50
2023-01-11T01:08:13.021Z,41.50
2023-01-11T01:10:40.830Z,41.50
2023-01-11T01:13:37.907Z,41.50
2023-01-11T01:16:06.066Z,41.50
2023-01-11T01:18:34.148Z,41.50
2023-01-11T01:21:02.063Z,41.50
2023-01-11T01:23:29.982Z,41.60
2023-01-11T01:25:57.889Z,41.50
2023-01-11T01:28:25.785Z,41.60
2023-01-11T01:30:53.832Z,41.60
2023-01-11T01:33:22.239Z,41.60
2023-01-11T01:35:50.296Z,41.60
2023-01-11T01:38:18.156Z,41.60
2023-01-11T01:40:48.263Z,41.60
2023-01-11T01:43:18.461Z,41.60
2023-01-11T01:45:50.098Z,41.60
2023-01-11T01:48:21.580Z,41.60
2023-01-11T01:50:56.812Z,41.50
2023-01-11T01:53:47.382Z,41.60
2023-01-11T01:56:24.875Z,41.60
2023-01-11T01:58:56.839Z,41.60
2023-01-11T02:01:43.749Z,41.60
2023-01-11T02:04:17.723Z,41.50
2023-01-11T02:06:45.606Z,41.50
2023-01-11T02:09:41.240Z,41.50
2023-01-11T02:12:09.302Z,41.50
2023-01-11T02:14:40.049Z,41.50
2023-01-11T02:17:09.084Z,41.40
2023-01-11T02:20:04.632Z,41.40
2023-01-11T02:22:55.355Z,41.50
2023-01-11T02:25:42.054Z,41.40
2023-01-11T02:28:21.601Z,41.40
2023-01-11T02:31:43.466Z,41.40
2023-01-11T02:34:13.982Z,41.40
2023-01-11T02:37:16.409Z,41.50
2023-01-11T02:39:49.616Z,41.50
2023-01-11T02:43:16.791Z,41.50
2023-01-11T02:45:58.555Z,41.40
2023-01-11T02:48:43.365Z,41.50
2023-01-11T02:51:47.563Z,41.50
2023-01-11T02:54:19.761Z,41.50
2023-01-11T02:56:51.743Z,41.50
2023-01-11T02:59:24.054Z,41.50
2023-01-11T03:01:55.714Z,41.40
2023-01-11T03:04:32.191Z,41.30
2023-01-11T03:07:10.813Z,41.20
2023-01-11T03:09:46.498Z,41.10
2023-01-11T03:12:55.163Z,41.00
2023-01-11T03:15:35.060Z,41.00
2023-01-11T03:18:30.138Z,40.90
2023-01-11T03:21:15.660Z,40.70
2023-01-11T03:24:06.447Z,40.50
2023-01-11T03:26:58.565Z,40.60
2023-01-11T03:29:42.136Z,40.40
2023-01-11T03:32:12.884Z,40.40
2023-01-11T03:34:51.093Z,40.30
2023-01-11T03:37:33.367Z,40.20
2023-01-11T03:40:04.348Z,40.00
2023-01-11T03:42:35.253Z,39.90
2023-01-11T03:45:04.692Z,39.80
2023-01-11T03:47:34.999Z,39.60
2023-01-11T03:50:11.169Z,39.70
2023-01-11T03:52:42.771Z,39.60
2023-01-11T03:55:14.702Z,39.50
2023-01-11T03:57:51.470Z,39.40
2023-01-11T04:00:24.685Z,39.40
2023-01-11T04:02:54.375Z,39.40
2023-01-11T04:05:22.987Z,39.40
2023-01-11T04:07:51.630Z,39.30
2023-01-11T04:10:20.293Z,39.30
2023-01-11T04:12:49.672Z,39.20
2023-01-11T04:15:18.631Z,39.10
2023-01-11T04:17:46.948Z,39.70
2023-01-11T04:20:15.681Z,40.00
2023-01-11T04:22:44.028Z,40.20
2023-01-11T04:25:11.828Z,40.30
2023-01-11T04:27:41.217Z,40.50
2023-01-11T04:30:10.521Z,40.60
2023-01-11T04:32:38.815Z,40.90
2023-01-11T04:35:07.706Z,40.70
2023-01-11T04:37:36.259Z,40.90
2023-01-11T04:40:05.397Z,41.10
2023-01-11T04:42:34.019Z,41.10
2023-01-11T04:45:05.840Z,41.00
2023-01-11T04:47:34.612Z,41.00
2023-01-11T04:50:03.941Z,41.20
2023-01-11T04:52:32.675Z,41.10
2023-01-11T04:55:01.332Z,40.90
2023-01-11T04:57:29.814Z,41.30
2023-01-11T04:59:58.448Z,41.10
2023-01-11T05:02:27.277Z,41.20
2023-01-11T05:04:55.614Z,41.00
2023-01-11T05:07:24.120Z,40.70
2023-01-11T05:09:53.080Z,40.90
2023-01-11T05:12:21.629Z,40.60
2023-01-11T05:14:50.224Z,39.90
2023-01-11T05:17:18.625Z,39.50
2023-01-11T05:19:47.422Z,39.40
2023-01-11T05:22:15.843Z,39.30
2023-01-11T05:24:44.460Z,39.10
2023-01-11T05:27:13.154Z,39.10
2023-01-11T05:29:42.045Z,39.10
2023-01-11T05:32:12.538Z,38.90
2023-01-11T05:34:41.169Z,38.90
2023-01-11T05:37:09.722Z,39.10
2023-01-11T05:39:38.477Z,38.80
2023-01-11T05:42:06.955Z,38.80
2023-01-11T05:44:56.268Z,38.70
2023-01-11T05:47:26.139Z,38.70
2023-01-11T05:49:54.766Z,39.00
2023-01-11T05:52:23.326Z,38.80
2023-01-11T05:54:51.737Z,38.90
2023-01-11T05:57:20.251Z,38.70
2023-01-11T05:59:48.812Z,38.90
2023-01-11T06:02:17.527Z,38.70
2023-01-11T06:04:45.891Z,38.70
2023-01-11T06:07:14.392Z,38.20
2023-01-11T06:09:42.530Z,32.50
2023-01-11T06:12:11.440Z,32.40
2023-01-11T06:14:39.955Z,32.90
2023-01-11T06:17:08.448Z,32.60
2023-01-11T06:19:36.838Z,32.30
2023-01-11T06:22:05.160Z,31.10
2023-01-11T06:24:33.558Z,32.90
2023-01-11T06:27:02.086Z,32.90
2023-01-11T06:29:30.378Z,32.40
2023-01-11T06:31:58.871Z,33.60
2023-01-11T06:34:27.271Z,33.90
2023-01-11T06:36:55.912Z,33.60
2023-01-11T06:39:24.283Z,33.70
2023-01-11T06:41:52.660Z,34.10
2023-01-11T06:44:21.294Z,34.20
2023-01-11T06:46:49.870Z,34.20
2023-01-11T06:49:18.535Z,34.50
2023-01-11T06:51:47.027Z,34.70
2023-01-11T06:54:15.315Z,35.00
2023-01-11T06:56:44.067Z,35.40
2023-01-11T06:59:12.263Z,35.60
2023-01-11T07:01:40.703Z,35.40
2023-01-11T07:04:09.310Z,35.80
2023-01-11T07:06:37.855Z,35.70
2023-01-11T07:09:06.365Z,36.00
2023-01-11T07:11:39.311Z,35.70
2023-01-11T07:14:07.636Z,36.10
2023-01-11T07:16:35.957Z,36.10
2023-01-11T07:19:04.588Z,36.10
2023-01-11T07:21:33.002Z,36.10
2023-01-11T07:24:02.205Z,36.00
2023-01-11T07:26:31.704Z,36.20
2023-01-11T07:29:01.398Z,36.30
2023-01-11T07:36:05.934Z,37.50
2023-01-11T07:38:34.630Z,37.80
2023-01-11T07:41:22.760Z,37.40
2023-01-11T07:43:51.159Z,37.60
2023-01-11T07:46:19.617Z,37.50
2023-01-11T07:48:48.472Z,37.80
2023-01-11T07:51:20.749Z,37.20
2023-01-11T07:53:49.308Z,37.10
2023-01-11T07:56:18.062Z,37.20
2023-01-11T07:58:46.630Z,37.10
2023-01-11T08:01:14.992Z,37.10
2023-01-11T08:03:43.440Z,37.70
2023-01-11T08:06:12.218Z,37.20
2023-01-11T08:08:41.333Z,37.30
2023-01-11T08:11:30.383Z,37.30
2023-01-11T08:14:17.127Z,37.40
2023-01-11T08:16:45.486Z,37.70
2023-01-11T08:19:13.831Z,37.90
2023-01-11T08:21:44.735Z,38.10
2023-01-11T08:24:12.960Z,38.50
2023-01-11T08:26:41.506Z,38.30
2023-01-11T08:29:10.416Z,38.50
2023-01-11T08:31:39.162Z,38.50
2023-01-11T08:34:07.382Z,38.70
2023-01-11T08:36:35.755Z,39.00
2023-01-11T08:39:04.178Z,39.00
2023-01-11T08:41:35.567Z,38.50
2023-01-11T08:44:04.293Z,38.80
2023-01-11T08:46:34.982Z,39.00
2023-01-11T08:49:03.439Z,40.00
2023-01-11T08:51:33.159Z,39.10
2023-01-11T08:54:01.643Z,39.20
2023-01-11T08:56:30.140Z,39.90
2023-01-11T08:58:58.627Z,39.60
2023-01-11T09:01:26.860Z,40.20
2023-01-11T09:03:55.298Z,39.40
2023-01-11T09:06:24.035Z,39.50
2023-01-11T09:08:52.591Z,39.60
2023-01-11T09:11:39.334Z,39.60
2023-01-11T09:14:07.703Z,40.00
2023-01-11T09:16:36.160Z,39.70
2023-01-11T09:19:04.535Z,39.80
2023-01-11T09:21:33.108Z,39.90
2023-01-11T09:24:01.377Z,39.90
2023-01-11T09:26:30.161Z,40.00
2023-01-11T09:28:58.510Z,40.10
2023-01-11T09:31:26.829Z,40.00
2023-01-11T09:33:55.533Z,40.20
2023-01-11T09:36:26.846Z,40.30
2023-01-11T09:38:57.859Z,40.50
2023-01-11T09:42:02.222Z,40.70
2023-01-11T09:44:32.130Z,40.10
2023-01-11T09:47:17.716Z,40.10
2023-01-11T09:49:56.674Z,40.10
2023-01-11T09:52:30.244Z,40.00
2023-01-11T09:55:00.028Z,39.90
2023-01-11T09:57:48.540Z,39.90
2023-01-11T10:00:40.611Z,39.80
2023-01-11T10:03:27.081Z,39.80
2023-01-11T10:06:13.452Z,39.90
2023-01-11T10:18:31.996Z,40.00
2023-01-11T10:18:43.125Z,40.20
2023-01-11T10:21:35.834Z,40.50
2023-01-11T10:24:23.990Z,40.40
2023-01-11T10:27:02.390Z,40.50
2023-01-11T10:29:53.873Z,40.60
2023-01-11T10:32:43.216Z,40.70
2023-01-11T10:35:58.580Z,41.00
2023-01-11T10:38:41.427Z,40.90
2023-01-11T10:41:24.289Z,41.30
2023-01-11T10:44:09.089Z,41.00
2023-01-11T10:46:43.795Z,41.20
2023-01-11T10:49:30.537Z,40.70
2023-01-11T10:52:14.185Z,40.60
2023-01-11T10:54:46.971Z,40.30
2023-01-11T10:57:20.414Z,40.30
2023-01-11T11:00:08.217Z,40.10
2023-01-11T11:02:42.565Z,40.20
2023-01-11T11:05:13.971Z,40.20
2023-01-11T11:07:53.605Z,40.30
2023-01-11T11:10:24.695Z,40.30
2023-01-11T11:13:11.526Z,40.30
2023-01-11T11:16:05.893Z,40.40
2023-01-11T11:18:33.970Z,40.40
2023-01-11T11:21:11.411Z,40.40
2023-01-11T11:23:40.088Z,40.70
2023-01-11T11:26:09.999Z,40.50
2023-01-11T11:29:01.297Z,40.60
2023-01-11T11:31:31.898Z,40.60
2023-01-11T11:34:07.397Z,41.00
2023-01-11T11:36:52.611Z,40.60
2023-01-11T11:39:26.196Z,41.10
2023-01-11T11:41:56.666Z,41.00
2023-01-11T11:44:28.406Z,40.80
2023-01-11T11:47:07.648Z,40.70
2023-01-11T11:49:38.769Z,40.60
2023-01-11T11:52:12.589Z,40.80
2023-01-11T11:54:48.763Z,40.70
2023-01-11T11:57:26.238Z,40.20
2023-01-11T12:00:03.036Z,40.10
2023-01-11T12:02:35.910Z,40.60
2023-01-11T12:05:10.249Z,40.50
2023-01-11T12:07:54.819Z,40.30
2023-01-11T12:10:29.531Z,40.40
2023-01-11T12:13:00.751Z,40.40
2023-01-11T12:15:33.954Z,40.20
2023-01-11T12:18:27.166Z,40.30
2023-01-11T12:20:56.385Z,40.30
2023-01-11T12:23:26.854Z,40.20
2023-01-11T12:26:13.487Z,41.00
2023-01-11T12:29:00.699Z,41.10
2023-01-11T12:31:55.658Z,40.80
2023-01-11T12:34:49.773Z,40.40
2023-01-11T12:37:19.306Z,40.20
2023-01-11T12:40:08.376Z,40.30
2023-01-11T12:43:07.405Z,40.00
2023-01-11T12:45:54.357Z,40.10
2023-01-11T12:48:44.415Z,40.60
2023-01-11T12:51:37.062Z,40.10
2023-01-11T12:54:42.894Z,40.20
2023-01-11T12:57:18.385Z,40.40
2023-01-11T13:00:24.348Z,40.40
2023-01-11T13:02:52.911Z,40.50
2023-01-11T13:05:39.619Z,40.40
2023-01-11T13:08:26.191Z,40.30
2023-01-11T13:11:03.318Z,40.40
2023-01-11T13:14:00.872Z,40.40
2023-01-11T13:16:43.955Z,40.20
2023-01-11T13:19:27.184Z,41.00
2023-01-11T13:21:57.354Z,40.80
2023-01-11T13:24:31.775Z,40.50
2023-01-11T13:27:07.549Z,40.30
2023-01-11T13:29:40.305Z,40.10
2023-01-11T13:32:17.208Z,40.10
2023-01-11T13:35:07.007Z,40.40
2023-01-11T13:37:44.960Z,40.10
2023-01-11T13:40:29.720Z,40.20
2023-01-11T13:43:21.076Z,40.70
2023-01-11T13:45:56.161Z,40.80
2023-01-11T13:48:34.167Z,40.70
2023-01-11T13:51:18.250Z,40.70
2023-01-11T13:54:27.122Z,40.30
2023-01-11T13:57:11.576Z,40.50
2023-01-11T13:59:46.702Z,40.20
2023-01-11T14:02:20.480Z,40.60
2023-01-11T14:05:04.464Z,40.60
2023-01-11T14:07:33.543Z,40.60
2023-01-11T14:10:21.084Z,40.70
2023-01-11T14:13:13.498Z,40.70
2023-01-11T14:15:51.732Z,40.60
2023-01-11T14:18:49.439Z,40.90
2023-01-11T14:21:59.068Z,40.80
2023-01-11T14:24:31.062Z,40.90
2023-01-11T14:27:25.400Z,41.10
2023-01-11T14:30:21.206Z,41.10
2023-01-11T14:33:15.853Z,40.90
2023-01-11T14:35:53.276Z,40.90
2023-01-11T14:38:50.311Z,40.90
2023-01-11T14:41:38.743Z,41.10
2023-01-11T14:44:29.350Z,41.00
2023-01-11T14:47:15.932Z,41.10
2023-01-11T14:50:08.786Z,41.00
2023-01-11T14:52:40.718Z,41.30
2023-01-11T14:55:21.556Z,41.00
2023-01-11T14:58:14.260Z,41.10
2023-01-11T15:00:42.703Z,41.00
2023-01-11T15:03:11.076Z,41.00
2023-01-11T15:05:49.294Z,40.90
2023-01-11T15:08:25.451Z,41.10
2023-01-11T15:11:22.515Z,41.20
2023-01-11T15:14:20.316Z,41.10
2023-01-11T15:17:16.517Z,41.00
2023-01-11T15:19:45.863Z,41.20
2023-01-11T15:22:43.985Z,41.30
2023-01-11T15:25:33.546Z,41.20
2023-01-11T15:28:32.784Z,41.40
2023-01-11T15:31:05.428Z,41.30
2023-01-11T15:33:48.912Z,41.20
2023-01-11T15:36:17.656Z,41.30
2023-01-11T15:39:03.437Z,41.20
2023-01-11T15:41:59.346Z,41.30
2023-01-11T15:44:46.292Z,41.40
2023-01-11T15:47:49.820Z,41.20
2023-01-11T15:50:35.213Z,41.70
2023-01-11T15:53:30.547Z,41.60
2023-01-11T15:56:32.782Z,41.60
2023-01-11T15:59:33.138Z,41.50
2023-01-11T16:02:39.014Z,41.60
2023-01-11T16:05:31.606Z,41.90
2023-01-11T16:08:03.207Z,41.70
2023-01-11T16:11:16.000Z,41.70
2023-01-11T16:14:05.089Z,41.70
2023-01-11T16:16:42.083Z,41.30
2023-01-11T16:19:25.150Z,41.10
2023-01-11T16:21:59.351Z,40.90
2023-01-11T16:24:33.106Z,40.70
2023-01-11T16:27:03.536Z,40.60
2023-01-11T16:29:37.802Z,40.40
2023-01-11T16:32:18.793Z,40.00
2023-01-11T16:34:51.696Z,39.30
2023-01-11T16:37:26.945Z,39.30
2023-01-11T16:40:06.816Z,39.00
2023-01-11T16:42:41.586Z,38.80
2023-01-11T16:45:24.935Z,38.50
2023-01-11T16:48:05.448Z,38.40
2023-01-11T16:50:37.448Z,38.30
2023-01-11T16:53:13.559Z,38.20
2023-01-11T16:55:44.793Z,38.00
2023-01-11T16:58:30.717Z,38.00
2023-01-11T17:01:08.159Z,38.10
2023-01-11T17:03:49.273Z,37.80
2023-01-11T17:06:23.430Z,38.00
2023-01-11T17:08:56.994Z,38.20
2023-01-11T17:11:44.702Z,38.30
2023-01-11T17:14:13.171Z,38.50
2023-01-11T17:16:48.208Z,38.50
2023-01-11T17:19:41.143Z,38.60
2023-01-11T17:22:15.317Z,38.70
2023-01-11T17:25:02.134Z,38.80
2023-01-11T17:27:36.047Z,38.90
2023-01-11T17:30:12.715Z,38.90
2023-01-11T17:32:50.879Z,39.00
2023-01-11T17:35:28.541Z,38.90
2023-01-11T17:38:03.465Z,38.90
2023-01-11T17:40:38.830Z,38.90
2023-01-11T17:43:36.565Z,38.90
2023-01-11T17:46:06.106Z,38.90
2023-01-11T17:48:35.363Z,39.00
2023-01-11T17:51:05.784Z,38.90
2023-01-11T17:53:37.100Z,39.00
2023-01-11T17:56:08.071Z,39.00
2023-01-11T17:58:38.285Z,38.90
2023-01-11T18:01:09.581Z,39.00
2023-01-11T18:03:58.820Z,39.00
2023-01-11T18:06:36.098Z,39.00
2023-01-11T18:09:07.352Z,39.00
2023-01-11T18:11:39.398Z,39.00
2023-01-11T18:14:17.859Z,39.10
2023-01-11T18:17:08.093Z,39.10
2023-01-11T18:19:42.252Z,39.10
2023-01-11T18:22:30.208Z,39.10
2023-01-11T18:25:15.408Z,39.20
2023-01-11T18:27:46.773Z,39.20
2023-01-11T18:30:33.430Z,39.20
2023-01-11T18:33:04.103Z,39.20
2023-01-11T18:35:45.850Z,39.20
2023-01-11T18:38:19.449Z,39.30
2023-01-11T18:40:50.532Z,39.30
2023-01-11T18:43:26.872Z,39.30
2023-01-11T18:45:56.187Z,39.30
2023-01-11T18:48:25.179Z,39.30
2023-01-11T18:50:54.932Z,39.40
2023-01-11T18:53:24.887Z,39.40
2023-01-11T18:55:53.522Z,39.30
2023-01-11T18:58:21.703Z,39.40
2023-01-11T19:00:50.145Z,39.40
2023-01-11T19:03:18.077Z,39.40
2023-01-11T19:05:46.920Z,39.40
2023-01-11T19:08:15.493Z,39.40
2023-01-11T19:10:44.093Z,39.50
2023-01-11T19:13:13.722Z,39.50
2023-01-11T19:15:42.299Z,39.50
2023-01-11T19:18:10.773Z,39.50
2023-01-11T19:20:41.184Z,39.40
2023-01-11T19:23:09.654Z,39.40
2023-01-11T19:25:37.870Z,39.50
2023-01-11T19:28:06.823Z,39.50
2023-01-11T19:30:35.475Z,39.50
2023-01-11T19:33:04.237Z,39.50
2023-01-11T19:35:32.872Z,39.50
2023-01-11T19:38:01.347Z,39.50
2023-01-11T19:40:29.283Z,39.50
2023-01-11T19:42:59.474Z,39.50
2023-01-11T19:45:28.077Z,39.50
2023-01-11T19:47:58.342Z,39.60
2023-01-11T19:50:26.924Z,39.50
2023-01-11T19:52:55.456Z,39.60
2023-01-11T19:55:24.079Z,39.50
2023-01-11T19:57:52.254Z,39.60
2023-01-11T20:00:21.119Z,39.60
2023-01-11T20:02:49.524Z,39.60
2023-01-11T20:05:17.624Z,39.60
2023-01-11T20:07:45.705Z,39.60
2023-01-11T20:10:13.680Z,39.70
2023-01-11T20:12:41.683Z,39.60
2023-01-11T20:15:10.158Z,39.60
2023-01-11T20:17:38.556Z,39.60
2023-01-11T20:20:08.082Z,39.60
2023-01-11T20:22:36.115Z,39.70
2023-01-11T20:25:04.743Z,39.70
2023-01-11T20:27:34.489Z,39.60
2023-01-11T20:30:03.384Z,39.70
2023-01-11T20:32:41.522Z,39.70
2023-01-11T20:35:11.566Z,39.70
2023-01-11T20:37:40.269Z,39.70
2023-01-11T20:40:09.389Z,39.70
2023-01-11T20:42:37.880Z,39.70
2023-01-11T20:45:06.533Z,39.70
2023-01-11T20:47:34.648Z,39.70
2023-01-11T20:50:02.711Z,39.80
2023-01-11T20:52:30.892Z,39.80
2023-01-11T20:54:59.198Z,39.80
2023-01-11T20:57:29.708Z,39.80
2023-01-11T20:59:57.936Z,39.80
2023-01-11T21:02:25.948Z,39.80
2023-01-11T21:04:54.267Z,39.80
2023-01-11T21:07:22.135Z,39.80
2023-01-11T21:09:49.967Z,39.80
2023-01-11T21:12:19.121Z,39.80
2023-01-11T21:14:47.624Z,39.80
2023-01-11T21:17:16.677Z,39.80
2023-01-11T21:19:45.274Z,39.80
2023-01-11T21:22:13.172Z,39.80
2023-01-11T21:24:41.165Z,39.80
2023-01-11T21:27:09.686Z,39.80
2023-01-11T21:29:38.271Z,39.80
2023-01-11T21:32:06.556Z,39.80
2023-01-11T21:34:34.570Z,39.80
2023-01-11T21:37:03.875Z,39.80
2023-01-11T21:39:32.382Z,39.90
2023-01-11T21:42:01.572Z,39.90
2023-01-11T21:44:33.883Z,39.90
2023-01-11T21:47:05.375Z,39.90
2023-01-11T21:49:33.760Z,39.90
2023-01-11T21:52:01.878Z,39.90
2023-01-11T21:54:29.923Z,39.90
2023-01-11T21:56:57.831Z,39.90
2023-01-11T21:59:26.062Z,39.90
2023-01-11T22:01:54.300Z,39.90
2023-01-11T22:04:22.603Z,39.90
2023-01-11T22:06:54.515Z,40.00
2023-01-11T22:09:25.537Z,40.00
2023-01-11T22:11:53.775Z,40.00
2023-01-11T22:14:21.811Z,40.00
2023-01-11T22:16:50.068Z,40.00
2023-01-11T22:19:18.175Z,40.00
2023-01-11T22:21:46.087Z,40.00
2023-01-11T22:24:14.131Z,40.00
2023-01-11T22:26:42.113Z,40.00
2023-01-11T22:29:16.519Z,40.00
2023-01-11T22:31:55.087Z,40.00
2023-01-11T22:34:23.867Z,40.10
2023-01-11T22:36:51.952Z,40.10
2023-01-11T22:39:20.108Z,40.00
2023-01-11T22:41:49.127Z,40.10
2023-01-11T22:44:17.441Z,40.00
2023-01-11T22:46:45.738Z,40.10
2023-01-11T22:49:14.527Z,40.10
2023-01-11T22:51:44.072Z,40.00
2023-01-11T22:54:12.907Z,40.00
2023-01-11T22:56:41.681Z,40.10
2023-01-11T22:59:10.311Z,40.10
2023-01-11T23:01:40.557Z,40.00
2023-01-11T23:04:11.904Z,40.10
2023-01-11T23:06:42.036Z,40.10
2023-01-11T23:09:16.001Z,40.10
2023-01-11T23:12:03.507Z,40.20
2023-01-11T23:14:33.287Z,40.10
2023-01-11T23:17:06.213Z,40.20
2023-01-11T23:19:36.512Z,40.10
2023-01-11T23:22:05.585Z,40.10
2023-01-11T23:24:33.609Z,40.10
2023-01-11T23:27:01.626Z,40.10
2023-01-11T23:29:29.677Z,40.10
2023-01-11T23:31:57.833Z,40.20
2023-01-11T23:34:25.902Z,40.10
2023-01-11T23:36:53.848Z,40.10
2023-01-11T23:39:23.900Z,40.20
2023-01-11T23:42:10.271Z,40.10
2023-01-11T23:44:38.131Z,40.20
2023-01-11T23:47:21.451Z,40.20
2023-01-11T23:49:50.931Z,40.30
2023-01-11T23:52:21.153Z,40.20
2023-01-11T23:54:49.437Z,40.20
2023-01-11T23:57:18.525Z,40.20
2023-01-11T23:59:46.853Z,40.20
